createdAt,value
2022-11-18T00:01:49.131Z,88.64
2022-11-18T00:04:18.860Z,88.51
2022-11-18T00:06:48.276Z,88.55
2022-11-18T00:09:17.904Z,88.25
2022-11-18T00:12:05.166Z,88.23
2022-11-18T00:14:34.414Z,88.40
2022-11-18T00:17:05.883Z,88.55
2022-11-18T00:19:37.835Z,88.78
2022-11-18T00:22:08.401Z,88.95
2022-11-18T00:24:37.863Z,89.12
2022-11-18T00:27:07.070Z,89.03
2022-11-18T00:29:36.460Z,89.11
2022-11-18T00:32:06.176Z,89.16
2022-11-18T00:34:35.590Z,89.25
2022-11-18T00:37:04.790Z,89.24
2022-11-18T00:39:34.049Z,89.31
2022-11-18T00:42:21.187Z,89.37
2022-11-18T00:44:50.703Z,89.48
2022-11-18T00:47:19.992Z,89.39
2022-11-18T00:49:49.406Z,89.51
2022-11-18T00:52:18.598Z,89.63
2022-11-18T00:54:47.876Z,89.76
2022-11-18T00:57:17.103Z,89.58
2022-11-18T00:59:46.363Z,89.50
2022-11-18T01:02:15.623Z,89.59
2022-11-18T01:04:44.870Z,89.82
2022-11-18T01:07:14.306Z,89.89
2022-11-18T01:09:43.677Z,89.85
2022-11-18T01:12:31.573Z,90.17
2022-11-18T01:15:01.379Z,90.19
2022-11-18T01:17:34.205Z,90.20
2022-11-18T01:20:03.460Z,90.24
2022-11-18T01:22:32.846Z,90.27
2022-11-18T01:25:02.141Z,90.17
2022-11-18T01:27:31.833Z,90.23
2022-11-18T01:30:01.082Z,90.20
2022-11-18T01:32:30.442Z,90.09
2022-11-18T01:34:59.675Z,90.08
2022-11-18T01:37:29.251Z,90.05
2022-11-18T01:39:58.465Z,90.02
2022-11-18T01:42:27.729Z,90.06
2022-11-18T01:45:18.005Z,89.88
2022-11-18T01:47:50.330Z,89.87
2022-11-18T01:50:21.273Z,90.05
2022-11-18T01:52:52.164Z,90.21
2022-11-18T01:55:27.400Z,90.10
2022-11-18T01:58:00.007Z,90.29
2022-11-18T02:00:28.659Z,90.23
2022-11-18T02:02:58.450Z,90.39
2022-11-18T02:05:27.929Z,90.52
2022-11-18T02:07:57.851Z,90.52
2022-11-18T02:10:27.361Z,90.63
2022-11-18T02:12:57.693Z,90.65
2022-11-18T02:15:39.260Z,90.89
2022-11-18T02:18:11.814Z,90.99
2022-11-18T02:20:43.959Z,90.79
2022-11-18T02:23:34.717Z,90.93
2022-11-18T02:26:16.033Z,90.91
2022-11-18T02:29:19.497Z,90.98
2022-11-18T02:32:10.048Z,91.08
2022-11-18T02:34:41.585Z,90.93
2022-11-18T02:37:22.625Z,90.83
2022-11-18T02:40:01.542Z,91.00
2022-11-18T02:42:32.274Z,91.02
2022-11-18T02:45:04.816Z,91.10
2022-11-18T02:47:36.073Z,91.27
2022-11-18T02:50:08.706Z,91.04
2022-11-18T02:52:37.323Z,91.07
2022-11-18T02:55:09.052Z,91.07
2022-11-18T02:57:39.251Z,91.07
2022-11-18T03:00:09.336Z,91.13
2022-11-18T03:02:44.337Z,91.06
2022-11-18T03:05:31.999Z,91.15
2022-11-18T03:08:04.817Z,91.17
2022-11-18T03:10:37.375Z,91.24
2022-11-18T03:13:07.151Z,91.23
2022-11-18T03:15:42.451Z,91.10
2022-11-18T03:18:20.838Z,91.37
2022-11-18T03:20:56.340Z,91.37
2022-11-18T03:23:43.705Z,91.49
2022-11-18T03:26:19.752Z,91.65
2022-11-18T03:28:54.867Z,91.65
2022-11-18T03:31:37.149Z,91.57
2022-11-18T03:34:12.675Z,91.70
2022-11-18T03:36:51.637Z,91.76
2022-11-18T03:39:19.869Z,91.77
2022-11-18T03:41:52.480Z,91.95
2022-11-18T03:44:27.613Z,91.97
2022-11-18T03:47:09.297Z,91.89
2022-11-18T03:49:46.550Z,92.09
2022-11-18T03:52:21.558Z,92.10
2022-11-18T03:54:53.486Z,92.25
2022-11-18T03:57:28.629Z,92.41
2022-11-18T04:00:06.784Z,92.46
2022-11-18T04:02:36.554Z,92.54
2022-11-18T04:05:07.899Z,92.50
2022-11-18T04:07:52.215Z,92.39
2022-11-18T04:10:27.079Z,92.45
2022-11-18T04:13:06.199Z,92.57
2022-11-18T04:15:35.923Z,92.39
2022-11-18T04:18:05.844Z,92.44
2022-11-18T04:20:35.198Z,92.59
2022-11-18T04:23:05.438Z,92.53
2022-11-18T04:25:35.587Z,92.50
2022-11-18T04:28:05.421Z,92.43
2022-11-18T04:30:35.005Z,92.55
2022-11-18T04:33:05.324Z,92.65
2022-11-18T04:35:34.642Z,92.63
2022-11-18T04:38:05.078Z,92.52
2022-11-18T04:40:34.468Z,92.59
2022-11-18T04:43:03.888Z,92.57
2022-11-18T04:45:33.079Z,92.57
2022-11-18T04:48:03.879Z,92.65
2022-11-18T04:50:33.324Z,92.70
2022-11-18T04:53:02.778Z,92.62
2022-11-18T04:55:32.013Z,92.64
2022-11-18T04:58:01.380Z,92.56
2022-11-18T05:00:30.644Z,92.56
2022-11-18T05:02:59.884Z,92.56
2022-11-18T05:05:29.218Z,92.61
2022-11-18T05:07:58.436Z,92.56
2022-11-18T05:10:27.668Z,92.59
2022-11-18T05:12:56.895Z,92.62
2022-11-18T05:15:26.183Z,92.57
2022-11-18T05:17:55.602Z,92.66
2022-11-18T05:20:25.008Z,92.67
2022-11-18T05:22:54.228Z,92.62
2022-11-18T05:25:23.590Z,92.70
2022-11-18T05:27:53.157Z,92.55
2022-11-18T05:30:22.468Z,92.60
2022-11-18T05:32:51.894Z,92.64
2022-11-18T05:35:21.154Z,92.61
2022-11-18T05:37:50.723Z,92.63
2022-11-18T05:40:19.948Z,92.70
2022-11-18T05:43:07.462Z,92.79
2022-11-18T05:45:36.871Z,92.79
2022-11-18T05:48:06.924Z,92.79
2022-11-18T05:50:38.119Z,92.74
2022-11-18T05:53:07.717Z,92.70
2022-11-18T05:55:40.259Z,92.74
2022-11-18T05:58:08.841Z,92.70
2022-11-18T06:00:38.105Z,92.78
2022-11-18T06:03:10.559Z,92.85
2022-11-18T06:05:39.962Z,92.70
2022-11-18T06:08:10.697Z,92.72
2022-11-18T06:10:40.392Z,92.81
2022-11-18T06:13:12.059Z,92.73
2022-11-18T06:15:43.216Z,92.71
2022-11-18T06:18:15.805Z,92.84
2022-11-18T06:20:44.706Z,92.87
2022-11-18T06:23:14.572Z,92.93
2022-11-18T06:25:43.989Z,92.75
2022-11-18T06:28:15.017Z,92.85
2022-11-18T06:30:44.546Z,92.89
2022-11-18T06:33:14.260Z,92.94
2022-11-18T06:35:44.121Z,92.90
2022-11-18T06:38:13.337Z,92.79
2022-11-18T06:40:44.407Z,92.91
2022-11-18T06:43:32.255Z,92.88
2022-11-18T06:46:21.530Z,92.80
2022-11-18T06:48:51.094Z,92.85
2022-11-18T06:51:20.860Z,92.88
2022-11-18T06:53:50.328Z,92.92
2022-11-18T06:56:21.350Z,92.85
2022-11-18T06:58:56.543Z,92.94
2022-11-18T07:01:28.137Z,92.90
2022-11-18T07:03:59.636Z,92.87
2022-11-18T07:06:31.824Z,92.85
2022-11-18T07:09:02.511Z,92.87
2022-11-18T07:11:31.762Z,92.77
2022-11-18T07:14:01.386Z,92.83
2022-11-18T07:16:30.760Z,92.94
2022-11-18T07:19:00.013Z,92.84
2022-11-18T07:21:30.337Z,92.80
2022-11-18T07:23:59.582Z,92.88
2022-11-18T07:26:28.943Z,92.90
2022-11-18T07:28:58.243Z,92.96
2022-11-18T07:31:27.650Z,92.94
2022-11-18T07:33:57.124Z,92.87
2022-11-18T07:36:35.153Z,92.76
2022-11-18T07:39:01.118Z,92.62
2022-11-18T07:41:31.510Z,92.60
2022-11-18T07:44:03.640Z,92.54
2022-11-18T07:46:35.401Z,92.51
2022-11-18T07:49:07.246Z,92.48
2022-11-18T07:51:39.192Z,92.29
2022-11-18T07:54:10.185Z,92.24
2022-11-18T07:56:39.492Z,92.16
2022-11-18T07:59:09.211Z,92.12
2022-11-18T08:01:38.743Z,92.02
2022-11-18T08:04:10.206Z,91.95
2022-11-18T08:06:40.279Z,92.07
2022-11-18T08:09:10.349Z,91.77
2022-11-18T08:11:41.130Z,91.74
2022-11-18T08:14:10.501Z,91.51
2022-11-18T08:16:39.839Z,91.32
2022-11-18T08:19:09.092Z,91.28
2022-11-18T08:21:38.398Z,91.14
2022-11-18T08:24:09.585Z,90.84
2022-11-18T08:26:39.393Z,90.79
2022-11-18T08:29:08.622Z,90.39
2022-11-18T08:31:38.065Z,89.84
2022-11-18T08:34:08.276Z,89.19
2022-11-18T08:36:38.908Z,88.31
2022-11-18T08:39:11.257Z,87.87
2022-11-18T08:41:42.875Z,87.88
2022-11-18T08:44:14.596Z,87.85
2022-11-18T08:46:47.922Z,87.99
2022-11-18T08:49:17.594Z,87.75
2022-11-18T08:51:47.101Z,87.06
2022-11-18T08:54:16.387Z,86.55
2022-11-18T08:56:45.645Z,85.40
2022-11-18T08:59:15.798Z,85.69
2022-11-18T09:01:45.654Z,84.40
2022-11-18T09:04:14.994Z,84.29
2022-11-18T09:06:44.425Z,83.93
2022-11-18T09:09:13.933Z,83.04
2022-11-18T09:11:43.294Z,82.26
2022-11-18T09:15:11.784Z,81.64
2022-11-18T09:16:44.931Z,81.61
2022-11-18T09:19:45.482Z,81.02
2022-11-18T09:21:46.586Z,81.20
2022-11-18T09:24:16.789Z,80.75
2022-11-18T09:26:46.423Z,81.14
2022-11-18T09:29:15.778Z,80.07
2022-11-18T09:31:45.126Z,78.71
2022-11-18T09:34:14.649Z,79.12
2022-11-18T09:36:44.018Z,80.52
2022-11-18T09:39:13.406Z,79.95
2022-11-18T09:41:47.979Z,79.88
2022-11-18T09:44:38.607Z,81.12
2022-11-18T09:47:36.828Z,80.43
2022-11-18T09:50:48.054Z,80.63
2022-11-18T09:53:23.857Z,81.85
2022-11-18T09:55:53.626Z,82.68
2022-11-18T09:58:31.728Z,83.64
2022-11-18T10:01:01.671Z,83.65
2022-11-18T10:03:32.993Z,84.34
2022-11-18T10:06:11.319Z,84.82
2022-11-18T10:08:49.795Z,84.27
2022-11-18T10:11:21.058Z,85.05
2022-11-18T10:13:53.784Z,84.88
2022-11-18T10:16:57.714Z,84.02
2022-11-18T10:19:38.574Z,84.66
2022-11-18T10:22:31.828Z,85.09
2022-11-18T10:25:01.674Z,85.11
2022-11-18T10:27:41.936Z,84.33
2022-11-18T10:30:14.686Z,84.63
2022-11-18T10:33:01.926Z,84.33
2022-11-18T10:35:39.406Z,84.68
2022-11-18T10:38:17.673Z,83.92
2022-11-18T10:40:55.995Z,80.05
2022-11-18T10:43:46.486Z,76.99
2022-11-18T10:46:30.444Z,76.93
2022-11-18T10:49:15.334Z,78.29
2022-11-18T10:51:50.487Z,78.16
2022-11-18T10:54:24.093Z,74.64
2022-11-18T10:57:05.579Z,73.11
2022-11-18T10:59:47.122Z,70.62
2022-11-18T11:02:36.617Z,69.67
2022-11-18T11:05:23.269Z,67.50
2022-11-18T11:08:35.301Z,69.86
2022-11-18T11:10:38.712Z,73.30
2022-11-18T11:13:14.036Z,70.80
2022-11-18T11:15:45.285Z,69.73
2022-11-18T11:18:36.027Z,70.20
2022-11-18T11:21:07.060Z,72.14
2022-11-18T11:23:36.282Z,72.61
2022-11-18T11:29:30.107Z,74.95
2022-11-18T11:32:31.089Z,75.13
2022-11-18T11:35:15.383Z,76.71
2022-11-18T11:38:01.807Z,76.79
2022-11-18T11:40:46.786Z,77.47
2022-11-18T11:43:24.826Z,76.34
2022-11-18T11:46:22.772Z,78.32
2022-11-18T11:49:13.492Z,78.86
2022-11-18T11:51:51.819Z,81.53
2022-11-18T11:54:27.176Z,83.94
2022-11-18T11:57:25.625Z,84.63
2022-11-18T12:00:02.799Z,85.27
2022-11-18T12:02:39.935Z,86.87
2022-11-18T12:05:35.914Z,87.52
2022-11-18T12:08:13.986Z,87.89
2022-11-18T12:10:55.356Z,88.04
2022-11-18T12:13:44.680Z,88.39
2022-11-18T12:16:41.250Z,88.81
2022-11-18T12:19:16.567Z,88.85
2022-11-18T12:21:49.266Z,88.88
2022-11-18T12:24:39.023Z,87.93
2022-11-18T12:27:14.042Z,88.81
2022-11-18T12:29:55.165Z,88.94
2022-11-18T12:32:45.760Z,88.57
2022-11-18T12:35:18.297Z,88.24
2022-11-18T12:37:56.504Z,88.14
2022-11-18T12:40:43.110Z,87.85
2022-11-18T12:43:45.870Z,88.24
2022-11-18T12:46:41.386Z,87.91
2022-11-18T12:49:27.493Z,87.87
2022-11-18T12:52:01.985Z,87.54
2022-11-18T12:54:36.377Z,87.22
2022-11-18T12:57:29.411Z,87.20
2022-11-18T12:59:57.978Z,87.96
2022-11-18T13:02:31.219Z,87.19
2022-11-18T13:05:11.911Z,87.58
2022-11-18T13:08:02.413Z,87.31
2022-11-18T13:10:34.163Z,87.47
2022-11-18T13:13:04.072Z,88.07
2022-11-18T13:15:51.482Z,87.83
2022-11-18T13:18:22.002Z,87.29
2022-11-18T13:20:59.071Z,88.21
2022-11-18T13:23:49.823Z,87.38
2022-11-18T13:26:30.096Z,87.70
2022-11-18T13:29:31.400Z,88.07
2022-11-18T13:32:04.083Z,87.35
2022-11-18T13:34:32.849Z,87.47
2022-11-18T13:37:02.313Z,87.80
2022-11-18T13:39:33.298Z,87.85
2022-11-18T13:42:23.160Z,87.28
2022-11-18T13:44:58.072Z,87.72
2022-11-18T13:47:54.044Z,87.73
2022-11-18T13:50:34.662Z,87.66
2022-11-18T13:53:22.648Z,88.15
2022-11-18T13:55:55.241Z,88.97
2022-11-18T13:59:15.952Z,89.47
2022-11-18T14:01:24.919Z,89.72
2022-11-18T14:03:56.955Z,89.89
2022-11-18T14:06:40.958Z,89.94
2022-11-18T14:09:30.453Z,90.16
2022-11-18T14:12:13.462Z,90.86
2022-11-18T14:14:44.392Z,91.19
2022-11-18T14:17:19.430Z,91.32
2022-11-18T14:19:51.889Z,91.61
2022-11-18T14:22:24.204Z,91.65
2022-11-18T14:24:59.145Z,91.91
2022-11-18T14:27:39.362Z,91.90
2022-11-18T14:30:34.298Z,92.11
2022-11-18T14:33:24.116Z,92.19
2022-11-18T14:36:02.232Z,92.38
2022-11-18T14:39:25.384Z,92.30
2022-11-18T14:41:23.476Z,92.20
2022-11-18T14:43:52.782Z,92.12
2022-11-18T14:46:22.241Z,92.39
2022-11-18T14:48:51.527Z,92.51
2022-11-18T14:51:21.668Z,92.57
2022-11-18T14:53:50.876Z,92.46
2022-11-18T14:56:32.843Z,92.57
2022-11-18T14:59:02.347Z,92.80
2022-11-18T15:01:31.813Z,92.94
2022-11-18T15:04:01.040Z,92.91
2022-11-18T15:06:30.295Z,92.93
2022-11-18T15:09:00.246Z,92.94
2022-11-18T15:11:29.583Z,92.93
2022-11-18T15:13:58.931Z,93.06
2022-11-18T15:16:31.026Z,92.82
2022-11-18T15:19:02.606Z,93.00
2022-11-18T15:21:32.389Z,93.05
2022-11-18T15:24:01.782Z,93.03
2022-11-18T15:26:37.220Z,93.07
2022-11-18T15:29:06.654Z,93.17
2022-11-18T15:31:35.875Z,93.38
2022-11-18T15:34:18.386Z,93.33
2022-11-18T15:36:36.429Z,93.21
2022-11-18T15:39:05.791Z,93.47
2022-11-18T15:41:35.214Z,93.16
2022-11-18T15:44:04.614Z,93.23
2022-11-18T15:46:34.294Z,93.38
2022-11-18T15:49:04.462Z,93.47
2022-11-18T15:51:34.154Z,93.39
2022-11-18T15:54:03.516Z,93.49
2022-11-18T15:56:33.868Z,93.63
2022-11-18T15:59:05.375Z,93.82
2022-11-18T16:01:37.881Z,94.06
2022-11-18T16:04:08.683Z,93.86
2022-11-18T16:06:38.537Z,93.82
2022-11-18T16:09:08.278Z,93.87
2022-11-18T16:11:55.490Z,93.91
2022-11-18T16:14:25.466Z,94.03
2022-11-18T16:16:56.611Z,93.91
2022-11-18T16:19:28.743Z,93.98
2022-11-18T16:21:58.396Z,94.03
2022-11-18T16:24:29.396Z,94.23
2022-11-18T16:26:59.039Z,94.15
2022-11-18T16:29:28.325Z,94.18
2022-11-18T16:31:57.656Z,94.15
2022-11-18T16:34:29.834Z,94.19
2022-11-18T16:37:02.702Z,94.16
2022-11-18T16:39:32.081Z,94.11
2022-11-18T16:42:08.495Z,94.15
2022-11-18T16:44:34.159Z,94.08
2022-11-18T16:47:06.499Z,94.18
2022-11-18T16:49:34.381Z,94.28
2022-11-18T16:52:03.715Z,94.20
2022-11-18T16:54:33.321Z,94.21
2022-11-18T16:57:02.736Z,94.16
2022-11-18T16:59:32.965Z,94.25
2022-11-18T17:02:03.051Z,94.32
2022-11-18T17:04:34.689Z,94.25
2022-11-18T17:07:04.095Z,94.33
2022-11-18T17:09:33.871Z,94.31
2022-11-18T17:12:03.661Z,94.20
2022-11-18T17:14:32.919Z,94.24
2022-11-18T17:17:02.113Z,94.22
2022-11-18T17:19:31.466Z,94.02
2022-11-18T17:22:00.836Z,94.21
2022-11-18T17:24:30.198Z,94.32
2022-11-18T17:26:59.577Z,94.33
2022-11-18T17:29:29.083Z,94.34
2022-11-18T17:31:58.354Z,94.37
2022-11-18T17:34:27.595Z,94.42
2022-11-18T17:37:00.196Z,94.39
2022-11-18T17:39:27.826Z,94.34
2022-11-18T17:42:15.534Z,94.47
2022-11-18T17:44:45.409Z,94.54
2022-11-18T17:47:14.612Z,94.50
2022-11-18T17:49:44.091Z,94.54
2022-11-18T17:52:13.362Z,94.59
2022-11-18T17:54:42.689Z,94.57
2022-11-18T17:57:12.000Z,94.59
2022-11-18T17:59:41.295Z,94.59
2022-11-18T18:02:12.613Z,94.66
2022-11-18T18:04:41.997Z,94.68
2022-11-18T18:07:11.406Z,94.71
2022-11-18T18:09:40.641Z,94.69
2022-11-18T18:12:27.829Z,94.66
2022-11-18T18:14:57.201Z,94.65
2022-11-18T18:17:26.537Z,94.69
2022-11-18T18:19:55.798Z,94.74
2022-11-18T18:22:25.067Z,94.73
2022-11-18T18:24:57.385Z,94.72
2022-11-18T18:27:26.631Z,94.72
2022-11-18T18:29:55.999Z,94.84
2022-11-18T18:32:25.289Z,94.91
2022-11-18T18:34:54.644Z,94.85
2022-11-18T18:37:23.865Z,94.88
2022-11-18T18:39:53.573Z,94.81
2022-11-18T18:42:22.807Z,94.87
2022-11-18T18:45:09.825Z,94.89
2022-11-18T18:47:39.152Z,94.90
2022-11-18T18:50:08.693Z,94.93
2022-11-18T18:52:37.926Z,94.89
2022-11-18T18:55:07.839Z,94.78
2022-11-18T18:57:37.433Z,94.80
2022-11-18T19:00:08.286Z,94.83
2022-11-18T19:02:37.531Z,94.97
2022-11-18T19:05:08.079Z,94.98
2022-11-18T19:07:37.405Z,94.95
2022-11-18T19:10:07.521Z,94.94
2022-11-18T19:12:47.235Z,95.03
2022-11-18T19:15:16.919Z,95.04
2022-11-18T19:17:47.272Z,95.06
2022-11-18T19:20:36.828Z,95.07
2022-11-18T19:23:10.356Z,95.03
2022-11-18T19:25:39.430Z,95.16
2022-11-18T19:28:09.498Z,95.13
2022-11-18T19:30:39.187Z,95.15
2022-11-18T19:33:08.569Z,95.19
2022-11-18T19:35:38.257Z,95.20
2022-11-18T19:38:07.758Z,95.28
2022-11-18T19:40:37.019Z,95.34
2022-11-18T19:43:06.628Z,95.36
2022-11-18T19:45:35.993Z,95.42
2022-11-18T19:48:06.280Z,95.51
2022-11-18T19:50:35.819Z,95.52
2022-11-18T19:53:06.850Z,95.52
2022-11-18T19:55:36.249Z,95.53
2022-11-18T19:58:05.475Z,95.52
2022-11-18T20:00:34.846Z,95.54
2022-11-18T20:03:06.069Z,95.52
2022-11-18T20:05:54.903Z,95.46
2022-11-18T20:08:25.624Z,95.49
2022-11-18T20:10:55.111Z,95.47
2022-11-18T20:13:24.361Z,95.46
2022-11-18T20:15:54.006Z,95.48
2022-11-18T20:18:24.937Z,95.51
2022-11-18T20:20:54.505Z,95.49
2022-11-18T20:23:24.399Z,95.51
2022-11-18T20:25:53.905Z,95.49
2022-11-18T20:28:23.129Z,95.52
2022-11-18T20:30:55.654Z,95.56
2022-11-18T20:33:25.059Z,95.62
2022-11-18T20:35:54.480Z,95.61
2022-11-18T20:38:25.110Z,95.61
2022-11-18T20:40:54.397Z,95.59
2022-11-18T20:43:23.836Z,95.62
2022-11-18T20:45:55.672Z,95.63
2022-11-18T20:48:25.066Z,95.70
2022-11-18T20:50:54.708Z,95.70
2022-11-18T20:53:25.911Z,95.73
2022-11-18T20:55:55.570Z,95.69
2022-11-18T20:58:25.032Z,95.71
2022-11-18T21:00:58.049Z,95.74
2022-11-18T21:03:25.576Z,95.77
2022-11-18T21:05:54.827Z,95.67
2022-11-18T21:08:24.192Z,95.69
2022-11-18T21:10:53.416Z,95.70
2022-11-18T21:13:41.119Z,95.70
2022-11-18T21:16:10.353Z,95.68
2022-11-18T21:18:39.814Z,95.69
2022-11-18T21:21:27.118Z,95.68
2022-11-18T21:23:58.190Z,95.67
2022-11-18T21:26:29.759Z,95.71
2022-11-18T21:29:00.615Z,95.77
2022-11-18T21:31:30.390Z,95.75
2022-11-18T21:33:59.941Z,95.80
2022-11-18T21:36:29.854Z,95.81
2022-11-18T21:38:59.628Z,95.79
2022-11-18T21:41:30.286Z,95.68
2022-11-18T21:44:06.908Z,95.59
2022-11-18T21:46:32.275Z,95.55
2022-11-18T21:49:01.930Z,95.47
2022-11-18T21:51:35.054Z,95.47
2022-11-18T21:54:04.748Z,95.61
2022-11-18T21:56:34.652Z,95.66
2022-11-18T21:59:04.095Z,95.63
2022-11-18T22:01:34.437Z,95.57
2022-11-18T22:04:05.602Z,95.32
2022-11-18T22:06:35.629Z,95.10
2022-11-18T22:09:06.180Z,94.64
2022-11-18T22:11:35.593Z,94.87
2022-11-18T22:14:06.271Z,95.02
2022-11-18T22:16:35.766Z,94.89
2022-11-18T22:19:08.174Z,94.58
2022-11-18T22:21:36.292Z,94.76
2022-11-18T22:24:06.092Z,94.58
2022-11-18T22:26:36.009Z,94.58
2022-11-18T22:29:05.628Z,94.89
2022-11-18T22:31:35.208Z,94.80
2022-11-18T22:34:04.526Z,95.09
2022-11-18T22:36:34.490Z,95.03
2022-11-18T22:39:04.028Z,95.14
2022-11-18T22:41:51.435Z,94.96
2022-11-18T22:44:20.678Z,94.93
2022-11-18T22:46:50.045Z,95.01
2022-11-18T22:49:19.568Z,95.07
2022-11-18T22:51:48.967Z,95.09
2022-11-18T22:56:49.295Z,94.86
2022-11-18T22:59:19.118Z,94.92
2022-11-18T23:01:48.641Z,94.97
2022-11-18T23:04:17.939Z,94.82
2022-11-18T23:06:47.342Z,95.06
2022-11-18T23:09:17.264Z,95.01
2022-11-18T23:12:04.788Z,94.95
2022-11-18T23:14:34.170Z,94.89
2022-11-18T23:17:04.772Z,94.98
2022-11-18T23:19:34.071Z,94.88
2022-11-18T23:22:03.259Z,94.90
2022-11-18T23:24:32.598Z,94.74
2022-11-18T23:27:01.823Z,94.94
2022-11-18T23:29:31.215Z,95.18
2022-11-18T23:32:00.451Z,94.97
2022-11-18T23:34:29.762Z,94.85
2022-11-18T23:36:58.976Z,94.94
2022-11-18T23:39:28.330Z,94.93
2022-11-18T23:41:57.527Z,94.83
2022-11-18T23:44:28.531Z,94.90
2022-11-18T23:46:57.745Z,94.93
2022-11-18T23:49:27.049Z,94.89
2022-11-18T23:51:56.462Z,95.00
2022-11-18T23:54:25.870Z,94.93
2022-11-18T23:56:55.138Z,94.85
2022-11-18T23:59:24.380Z,94.98
